KABR/ABR METAR and TAF weather

Enter ICAO airport designator
Station Type Date Time Source
KABR METAR 2021/03/01 03:53 UTC NOAA

KABR 010353Z AUTO 19007KT 10SM CLR M03/M07 A2999 RMK AO2 SLP175 T10331072


Station Type Date Time Source
KABR Decoded METAR 2021/03/01 03:53 UTC NOAA

ABERDEEN REGIONAL AIRPORT, SD, United States (KABR) 45-27N 098-25W 400M
Feb 28, 2021 - 10:53 PM EST / 2021.03.01 0353 UTC
Wind: from the S (190 degrees) at 8 MPH (7 KT):0
Visibility: 10 mile(s):0
Sky conditions: clear
Temperature: 26.1 F (-3.3 C)
Windchill: 17 F (-8 C):1
Dew Point: 19.0 F (-7.2 C)
Relative Humidity: 74%
Pressure (altimeter): 29.99 in. Hg (1015 hPa)
ob: KABR 010353Z AUTO 19007KT 10SM CLR M03/M07 A2999 RMK AO2 SLP175 T10331072
cycle: 4

Station Type Date Time Source
KABR TAF 2021/02/28 18:36 UTC NOAA

TAF KABR 281735Z 2818/0118 31011KT P6SM SKC
FM282000 26014KT P6SM SKC
FM010000 18008KT P6SM SCT250
FM010700 04014KT P6SM SCT250

Example: see airport list